createdAt,value
2022-10-30T00:03:04.294Z,6.70
2022-10-30T00:08:11.170Z,6.85
2022-10-30T00:13:15.064Z,7.00
2022-10-30T00:18:19.214Z,7.62
2022-10-30T00:23:24.500Z,7.90
2022-10-30T00:28:28.161Z,7.53
2022-10-30T00:33:32.075Z,7.62
2022-10-30T00:38:37.075Z,8.10
2022-10-30T00:43:42.078Z,7.15
2022-10-30T00:48:53.779Z,7.00
2022-10-30T00:54:00.771Z,7.80
2022-10-30T00:59:08.743Z,7.47
2022-10-30T01:04:13.749Z,6.82
2022-10-30T01:09:19.801Z,7.53
2022-10-30T01:14:23.710Z,8.15
2022-10-30T01:19:35.658Z,7.57
2022-10-30T01:24:50.759Z,9.00
2022-10-30T01:30:03.456Z,7.40
2022-10-30T01:35:15.630Z,8.55
2022-10-30T01:40:21.383Z,7.80
2022-10-30T01:45:36.220Z,8.18
2022-10-30T01:50:50.920Z,8.15
2022-10-30T01:56:10.404Z,7.87
2022-10-30T02:01:14.921Z,7.62
2022-10-30T02:06:18.921Z,7.82
2022-10-30T02:11:26.652Z,8.52
2022-10-30T02:16:30.444Z,8.95
2022-10-30T02:21:35.582Z,8.70
2022-10-30T02:26:39.311Z,9.70
2022-10-30T02:31:43.739Z,9.40
2022-10-30T02:36:48.919Z,9.70
2022-10-30T02:41:54.093Z,9.25
2022-10-30T02:46:58.567Z,9.50
2022-10-30T02:52:03.814Z,8.80
2022-10-30T02:57:07.611Z,9.70
2022-10-30T03:02:11.442Z,9.23
2022-10-30T03:07:16.637Z,9.07
2022-10-30T03:12:20.282Z,8.05
2022-10-30T03:17:24.019Z,8.93
2022-10-30T03:22:30.023Z,8.77
2022-10-30T03:27:33.715Z,9.45
2022-10-30T03:32:37.452Z,8.70
2022-10-30T03:37:42.557Z,8.73
2022-10-30T03:42:46.474Z,8.73
2022-10-30T03:47:51.509Z,9.35
2022-10-30T03:52:59.033Z,8.43
2022-10-30T03:58:03.746Z,8.43
2022-10-30T04:03:08.796Z,8.65
2022-10-30T04:08:15.574Z,7.90
2022-10-30T04:13:20.276Z,10.38
2022-10-30T04:18:24.349Z,8.10
2022-10-30T04:23:29.593Z,9.50
2022-10-30T04:28:33.437Z,8.93
2022-10-30T04:33:37.863Z,9.45
2022-10-30T04:38:43.154Z,9.70
2022-10-30T04:43:49.574Z,8.38
2022-10-30T04:48:54.738Z,8.02
2022-10-30T04:53:59.806Z,8.70
2022-10-30T04:59:05.892Z,8.53
2022-10-30T05:04:09.683Z,8.95
2022-10-30T05:09:14.905Z,8.40
2022-10-30T05:14:19.079Z,9.02
2022-10-30T05:19:23.171Z,8.27
2022-10-30T05:24:28.869Z,8.25
2022-10-30T05:29:32.700Z,8.10
2022-10-30T05:34:36.397Z,7.75
2022-10-30T05:39:41.674Z,8.07
2022-10-30T05:45:00.524Z,8.73
2022-10-30T05:50:06.932Z,8.25
2022-10-30T05:55:12.100Z,9.32
2022-10-30T06:00:17.668Z,9.38
2022-10-30T06:05:24.035Z,8.50
2022-10-30T06:10:29.959Z,9.07
2022-10-30T06:15:34.849Z,9.10
2022-10-30T06:20:39.010Z,9.10
2022-10-30T06:25:44.746Z,9.10
2022-10-30T06:30:48.544Z,8.65
2022-10-30T06:35:52.257Z,8.88
2022-10-30T06:40:57.462Z,9.77
2022-10-30T06:46:02.078Z,11.18
2022-10-30T06:51:06.710Z,10.65
2022-10-30T06:56:13.387Z,10.10
2022-10-30T07:01:17.868Z,9.82
2022-10-30T07:06:23.506Z,9.20
2022-10-30T07:11:28.527Z,8.15
2022-10-30T07:16:32.883Z,8.27
2022-10-30T07:21:36.985Z,10.30
2022-10-30T07:26:42.933Z,11.55
2022-10-30T07:32:01.886Z,11.63
2022-10-30T07:37:06.593Z,10.93
2022-10-30T07:42:12.517Z,11.25
2022-10-30T07:47:17.341Z,9.77
2022-10-30T07:52:21.162Z,10.43
2022-10-30T07:57:26.398Z,10.23
2022-10-30T08:02:35.808Z,11.12
2022-10-30T08:07:47.871Z,9.52
2022-10-30T08:12:53.157Z,10.63
2022-10-30T08:17:57.331Z,11.60
2022-10-30T08:23:02.683Z,9.65
2022-10-30T08:28:12.198Z,10.93
2022-10-30T08:33:16.764Z,10.83
2022-10-30T08:38:27.283Z,8.82
2022-10-30T08:43:33.589Z,10.10
2022-10-30T08:48:37.663Z,9.20
2022-10-30T08:53:41.688Z,11.07
2022-10-30T08:58:47.280Z,9.88
2022-10-30T09:03:51.383Z,9.30
2022-10-30T09:08:56.203Z,9.68
2022-10-30T09:14:01.405Z,9.15
2022-10-30T09:19:05.185Z,7.75
2022-10-30T09:24:09.191Z,9.68
2022-10-30T09:29:21.254Z,9.43
2022-10-30T09:39:32.012Z,8.70
2022-10-30T09:45:08.168Z,8.68
2022-10-30T09:50:26.972Z,8.98
2022-10-30T09:55:41.836Z,8.82
2022-10-30T10:00:53.866Z,8.80
2022-10-30T10:06:01.986Z,9.10
2022-10-30T10:11:16.413Z,8.68
2022-10-30T10:16:25.964Z,7.87
2022-10-30T10:21:30.876Z,8.10
2022-10-30T10:26:47.282Z,7.82
2022-10-30T10:32:09.932Z,8.43
2022-10-30T10:37:24.430Z,7.97
2022-10-30T10:42:36.794Z,9.52
2022-10-30T10:48:08.024Z,7.95
2022-10-30T10:53:16.403Z,8.73
2022-10-30T10:58:28.624Z,8.32
2022-10-30T11:03:41.956Z,7.55
2022-10-30T11:08:45.586Z,7.47
2022-10-30T11:13:50.687Z,7.05
2022-10-30T11:18:59.162Z,8.05
2022-10-30T11:24:02.871Z,6.87
2022-10-30T11:29:12.920Z,6.00
2022-10-30T11:34:35.804Z,6.20
2022-10-30T11:39:39.574Z,7.28
2022-10-30T11:44:45.074Z,6.82
2022-10-30T11:49:54.703Z,6.50
2022-10-30T11:55:01.672Z,11.55
2022-10-30T12:00:09.323Z,7.10
2022-10-30T12:05:39.191Z,6.62
2022-10-30T12:15:50.863Z,8.20
2022-10-30T12:20:58.508Z,7.97
2022-10-30T12:26:09.344Z,6.32
2022-10-30T12:31:18.149Z,6.97
2022-10-30T12:36:25.957Z,6.80
2022-10-30T12:41:34.437Z,6.47
2022-10-30T12:46:43.502Z,6.85
2022-10-30T12:51:53.837Z,6.45
2022-10-30T12:57:08.040Z,6.03
2022-10-30T13:02:26.632Z,7.00
2022-10-30T13:07:38.182Z,5.53
2022-10-30T13:12:46.035Z,6.22
2022-10-30T13:17:50.726Z,5.93
2022-10-30T13:23:04.550Z,6.32
2022-10-30T13:28:19.290Z,6.62
2022-10-30T13:33:31.061Z,6.18
2022-10-30T13:38:47.733Z,6.40
2022-10-30T13:44:01.797Z,6.78
2022-10-30T13:49:32.988Z,6.53
2022-10-30T13:54:43.508Z,6.03
2022-10-30T13:59:56.684Z,5.97
2022-10-30T14:05:13.943Z,7.10
2022-10-30T14:10:41.176Z,5.47
2022-10-30T14:15:46.643Z,6.60
2022-10-30T14:20:52.034Z,6.28
2022-10-30T14:26:21.272Z,6.87
2022-10-30T14:31:35.781Z,6.53
2022-10-30T14:36:51.756Z,6.55
2022-10-30T14:42:03.825Z,5.97
2022-10-30T14:47:31.700Z,5.43
2022-10-30T14:52:44.753Z,6.82
2022-10-30T14:57:53.602Z,7.22
2022-10-30T15:03:03.955Z,6.30
2022-10-30T15:08:22.048Z,7.37
